createdAt,value
2019-02-21T00:00:45.496Z,5.56
2019-02-21T00:03:16.824Z,5.60
2019-02-21T00:05:47.844Z,5.39
2019-02-21T00:08:18.998Z,5.52
2019-02-21T00:10:50.078Z,5.59
2019-02-21T00:13:21.227Z,5.67
2019-02-21T00:15:52.315Z,5.63
2019-02-21T00:18:23.410Z,5.41
2019-02-21T00:20:54.494Z,5.45
2019-02-21T00:23:25.788Z,5.43
2019-02-21T00:25:56.953Z,5.54
2019-02-21T00:28:28.231Z,5.44
2019-02-21T00:31:00.262Z,5.43
2019-02-21T00:33:31.262Z,5.45
2019-02-21T00:36:02.365Z,5.40
2019-02-21T00:38:33.528Z,5.51
2019-02-21T00:41:05.027Z,5.52
2019-02-21T00:43:38.131Z,5.47
2019-02-21T00:46:09.226Z,5.50
2019-02-21T00:48:40.390Z,5.44
2019-02-21T00:51:11.522Z,5.45
2019-02-21T00:53:43.013Z,5.57
2019-02-21T00:56:14.026Z,5.49
2019-02-21T00:58:45.229Z,5.42
2019-02-21T01:01:16.283Z,5.56
2019-02-21T01:03:47.372Z,5.61
2019-02-21T01:06:18.424Z,5.49
2019-02-21T01:08:49.508Z,5.57
2019-02-21T01:11:20.521Z,5.54
2019-02-21T01:13:51.594Z,5.47
2019-02-21T01:16:22.792Z,5.54
2019-02-21T01:18:53.933Z,5.56
2019-02-21T01:21:25.106Z,5.57
2019-02-21T01:23:56.287Z,5.50
2019-02-21T01:26:27.419Z,5.56
2019-02-21T01:29:00.074Z,5.52
2019-02-21T01:31:31.166Z,5.55
2019-02-21T01:34:02.406Z,5.56
2019-02-21T01:36:33.571Z,5.55
2019-02-21T01:39:06.461Z,5.54
2019-02-21T01:41:38.596Z,5.57
2019-02-21T01:44:09.717Z,5.54
2019-02-21T01:46:40.886Z,5.49
2019-02-21T01:49:12.014Z,5.41
2019-02-21T01:51:43.197Z,5.39
2019-02-21T01:54:14.273Z,5.37
2019-02-21T01:56:45.281Z,5.37
2019-02-21T01:59:16.305Z,5.32
2019-02-21T02:01:47.306Z,5.29
2019-02-21T02:04:18.306Z,5.17
2019-02-21T02:06:49.466Z,5.22
2019-02-21T02:09:20.734Z,5.17
2019-02-21T02:11:51.911Z,5.37
2019-02-21T02:14:23.045Z,5.16
2019-02-21T02:16:54.095Z,5.13
2019-02-21T02:19:25.140Z,5.17
2019-02-21T02:21:56.141Z,5.09
2019-02-21T02:24:27.307Z,4.96
2019-02-21T02:27:00.267Z,4.98
2019-02-21T02:29:31.462Z,5.01
2019-02-21T02:32:02.473Z,5.02
2019-02-21T02:34:33.545Z,5.00
2019-02-21T02:37:04.805Z,5.08
2019-02-21T02:39:35.981Z,5.00
2019-02-21T02:42:08.719Z,5.01
2019-02-21T02:44:40.292Z,5.04
2019-02-21T02:47:11.411Z,4.94
2019-02-21T02:49:42.485Z,4.92
2019-02-21T02:52:13.586Z,4.80
2019-02-21T02:54:44.716Z,4.71
2019-02-21T02:57:15.702Z,4.68
2019-02-21T02:59:46.730Z,4.72
2019-02-21T03:02:17.723Z,4.88
2019-02-21T03:04:48.888Z,4.86
2019-02-21T03:07:21.072Z,4.86
2019-02-21T03:09:52.110Z,4.93
2019-02-21T03:12:23.310Z,4.97
2019-02-21T03:14:54.432Z,4.78
2019-02-21T03:17:25.524Z,4.78
2019-02-21T03:19:56.634Z,4.91
2019-02-21T03:22:27.717Z,4.88
2019-02-21T03:24:58.914Z,4.92
2019-02-21T03:27:30.037Z,4.98
2019-02-21T03:30:01.062Z,4.89
2019-02-21T03:32:32.198Z,4.92
2019-02-21T03:35:03.345Z,4.85
2019-02-21T03:37:34.480Z,4.83
2019-02-21T03:40:06.585Z,4.79
2019-02-21T03:42:38.097Z,4.73
2019-02-21T03:45:10.435Z,4.70
2019-02-21T03:47:41.590Z,4.70
2019-02-21T03:50:12.932Z,4.76
2019-02-21T03:52:44.077Z,4.74
2019-02-21T03:55:15.223Z,4.72
2019-02-21T03:57:46.315Z,4.81
2019-02-21T04:00:17.453Z,4.75
2019-02-21T04:02:48.793Z,4.70
2019-02-21T04:05:20.227Z,4.69
2019-02-21T04:07:51.289Z,4.64
2019-02-21T04:10:23.440Z,4.62
2019-02-21T04:12:54.568Z,4.62
2019-02-21T04:15:25.685Z,4.63
2019-02-21T04:17:56.817Z,4.62
2019-02-21T04:20:27.835Z,4.55
2019-02-21T04:22:58.910Z,4.51
2019-02-21T04:25:30.017Z,4.50
2019-02-21T04:28:01.015Z,4.23
2019-02-21T04:30:32.170Z,4.40
2019-02-21T04:33:03.375Z,4.48
2019-02-21T04:35:34.525Z,4.42
2019-02-21T04:38:05.728Z,4.36
2019-02-21T04:40:36.970Z,4.39
2019-02-21T04:43:08.178Z,4.47
2019-02-21T04:45:39.294Z,4.35
2019-02-21T04:48:10.325Z,4.38
2019-02-21T04:50:42.923Z,4.25
2019-02-21T04:53:14.089Z,4.25
2019-02-21T04:55:45.220Z,4.27
2019-02-21T04:58:16.402Z,4.34
2019-02-21T05:00:47.410Z,4.29
2019-02-21T05:03:18.507Z,4.22
2019-02-21T05:05:49.606Z,4.17
2019-02-21T05:08:20.667Z,4.15
2019-02-21T05:10:51.719Z,4.07
2019-02-21T05:13:22.700Z,4.15
2019-02-21T05:15:53.787Z,3.99
2019-02-21T05:18:24.854Z,3.84
2019-02-21T05:20:57.376Z,3.84
2019-02-21T05:23:28.362Z,3.83
2019-02-21T05:25:59.518Z,3.93
2019-02-21T05:28:32.147Z,3.90
2019-02-21T05:31:07.456Z,3.90
2019-02-21T05:34:06.722Z,3.94
2019-02-21T05:37:02.682Z,3.93
2019-02-21T05:39:42.556Z,3.85
2019-02-21T05:42:45.080Z,3.80
2019-02-21T05:45:38.239Z,3.62
2019-02-21T05:48:25.623Z,3.61
2019-02-21T05:51:05.471Z,3.46
2019-02-21T05:53:41.954Z,3.22
2019-02-21T05:56:29.661Z,3.21
2019-02-21T05:59:18.613Z,3.30
2019-02-21T06:02:10.134Z,3.38
2019-02-21T06:04:58.911Z,3.12
2019-02-21T06:07:43.894Z,3.04
2019-02-21T06:10:46.100Z,3.09
2019-02-21T06:13:33.458Z,2.98
2019-02-21T06:16:23.554Z,3.00
2019-02-21T06:19:12.642Z,2.96
2019-02-21T06:21:55.750Z,3.12
2019-02-21T06:24:51.553Z,3.30
2019-02-21T06:27:27.108Z,3.29
2019-02-21T06:30:01.849Z,3.19
2019-02-21T06:32:33.220Z,3.17
2019-02-21T06:35:04.414Z,3.21
2019-02-21T06:37:37.742Z,3.27
2019-02-21T06:40:08.382Z,3.36
2019-02-21T06:42:39.452Z,3.55
2019-02-21T06:45:10.603Z,3.83
2019-02-21T06:47:41.634Z,3.95
2019-02-21T06:50:14.480Z,3.98
2019-02-21T06:52:45.729Z,4.09
2019-02-21T06:55:16.948Z,4.11
2019-02-21T06:57:48.057Z,4.04
2019-02-21T07:00:19.175Z,4.11
2019-02-21T07:02:50.266Z,4.21
2019-02-21T07:05:21.607Z,4.27
2019-02-21T07:07:52.647Z,4.30
2019-02-21T07:10:23.808Z,4.35
2019-02-21T07:12:54.802Z,4.48
2019-02-21T07:15:25.881Z,4.54
2019-02-21T07:17:56.975Z,4.54
2019-02-21T07:20:28.103Z,4.78
2019-02-21T07:22:59.163Z,4.75
2019-02-21T07:25:47.064Z,4.79
2019-02-21T07:28:18.449Z,4.83
2019-02-21T07:30:50.449Z,4.82
2019-02-21T07:33:28.545Z,4.90
2019-02-21T07:35:54.757Z,4.99
2019-02-21T07:38:25.859Z,5.01
2019-02-21T07:40:56.959Z,5.11
2019-02-21T07:43:28.022Z,5.18
2019-02-21T07:45:59.073Z,5.30
2019-02-21T07:48:30.167Z,5.32
2019-02-21T07:51:01.397Z,5.34
2019-02-21T07:53:32.529Z,5.46
2019-02-21T07:56:03.682Z,5.49
2019-02-21T07:58:34.785Z,5.59
2019-02-21T08:01:05.874Z,5.62
2019-02-21T08:03:44.339Z,5.69
2019-02-21T08:06:10.104Z,5.48
2019-02-21T08:08:41.306Z,5.84
2019-02-21T08:11:12.481Z,5.92
2019-02-21T08:13:43.657Z,6.00
2019-02-21T08:16:14.864Z,6.07
2019-02-21T08:18:45.966Z,6.13
2019-02-21T08:21:16.983Z,6.18
2019-02-21T08:23:50.844Z,6.25
2019-02-21T08:26:20.871Z,6.35
2019-02-21T08:28:51.885Z,6.40
2019-02-21T08:31:23.074Z,6.47
2019-02-21T08:34:00.822Z,6.56
2019-02-21T08:36:31.959Z,6.58
2019-02-21T08:39:04.890Z,6.59
2019-02-21T08:41:36.749Z,6.69
2019-02-21T08:44:09.492Z,6.70
2019-02-21T08:46:40.808Z,6.83
2019-02-21T08:49:11.818Z,6.87
2019-02-21T08:51:42.847Z,6.99
2019-02-21T08:54:14.011Z,7.05
2019-02-21T08:56:45.110Z,7.19
2019-02-21T08:59:16.115Z,7.20
2019-02-21T09:01:47.323Z,7.32
2019-02-21T09:04:27.314Z,7.33
2019-02-21T09:06:51.346Z,7.38
2019-02-21T09:09:22.438Z,7.49
2019-02-21T09:11:53.919Z,7.55
2019-02-21T09:14:25.088Z,7.56
2019-02-21T09:16:56.112Z,7.67
2019-02-21T09:19:27.275Z,7.84
2019-02-21T09:21:58.379Z,7.80
2019-02-21T09:24:38.457Z,8.04
2019-02-21T09:27:02.272Z,8.05
2019-02-21T09:29:33.471Z,8.12
2019-02-21T09:32:06.841Z,8.18
2019-02-21T09:34:37.387Z,8.25
2019-02-21T09:37:08.569Z,8.27
2019-02-21T09:39:39.780Z,8.39
2019-02-21T09:42:11.026Z,8.46
2019-02-21T09:44:42.231Z,8.59
2019-02-21T09:47:13.324Z,8.77
2019-02-21T09:49:44.605Z,8.71
2019-02-21T09:52:15.888Z,8.77
2019-02-21T09:54:47.628Z,8.75
2019-02-21T09:57:19.053Z,8.78
2019-02-21T09:59:50.327Z,8.99
2019-02-21T10:02:23.176Z,8.99
2019-02-21T10:05:04.426Z,9.22
2019-02-21T10:07:27.298Z,9.45
2019-02-21T10:10:00.793Z,9.69
2019-02-21T10:12:31.228Z,9.84
2019-02-21T10:15:02.393Z,9.78
2019-02-21T10:17:33.770Z,9.98
2019-02-21T10:20:06.744Z,10.20
2019-02-21T10:22:38.440Z,10.43
2019-02-21T10:25:23.472Z,10.99
2019-02-21T10:27:54.777Z,10.49
2019-02-21T10:30:25.904Z,10.84
2019-02-21T10:32:56.990Z,10.25
2019-02-21T10:35:28.314Z,10.45
2019-02-21T10:37:59.532Z,10.68
2019-02-21T10:40:33.401Z,10.82
2019-02-21T10:43:04.754Z,10.69
2019-02-21T10:45:47.146Z,10.63
2019-02-21T10:48:08.868Z,10.70
2019-02-21T10:50:40.076Z,10.59
2019-02-21T10:53:11.239Z,10.60
2019-02-21T10:55:42.476Z,10.60
2019-02-21T10:58:14.381Z,10.65
2019-02-21T11:00:45.647Z,10.73
2019-02-21T11:03:16.817Z,10.81
2019-02-21T11:05:49.295Z,10.88
2019-02-21T11:08:20.409Z,10.68
2019-02-21T11:10:51.738Z,10.69
2019-02-21T11:13:22.861Z,10.86
2019-02-21T11:15:57.349Z,11.09
2019-02-21T11:18:28.700Z,11.24
2019-02-21T11:21:00.216Z,11.10
2019-02-21T11:23:31.314Z,11.02
2019-02-21T11:26:02.749Z,10.86
2019-02-21T11:28:34.020Z,10.80
2019-02-21T11:31:05.522Z,10.80
2019-02-21T11:33:36.618Z,10.75
2019-02-21T11:36:07.811Z,10.63
2019-02-21T11:38:38.945Z,11.02
2019-02-21T11:41:10.189Z,11.60
2019-02-21T11:43:41.306Z,11.47
2019-02-21T11:46:12.436Z,12.36
2019-02-21T11:48:43.586Z,13.16
2019-02-21T11:51:14.656Z,14.13
2019-02-21T11:53:45.828Z,16.03
2019-02-21T11:56:17.195Z,15.12
2019-02-21T11:58:48.373Z,13.00
2019-02-21T12:01:19.851Z,13.82
2019-02-21T12:03:50.949Z,13.90
2019-02-21T12:06:21.978Z,12.28
2019-02-21T12:08:53.170Z,12.41
2019-02-21T12:11:24.348Z,12.59
2019-02-21T12:13:55.741Z,12.03
2019-02-21T12:16:26.834Z,11.79
2019-02-21T12:18:58.583Z,12.60
2019-02-21T12:21:29.735Z,12.77
2019-02-21T12:24:00.854Z,13.12
2019-02-21T12:26:31.951Z,12.80
2019-02-21T12:29:02.970Z,12.23
2019-02-21T12:31:34.111Z,12.05
2019-02-21T12:34:05.300Z,12.18
2019-02-21T12:36:36.400Z,12.83
2019-02-21T12:39:08.837Z,12.63
2019-02-21T12:41:41.535Z,12.42
2019-02-21T12:44:13.828Z,12.67
2019-02-21T12:46:45.779Z,12.24
2019-02-21T12:49:16.949Z,12.20
2019-02-21T12:51:48.057Z,12.81
2019-02-21T12:54:19.101Z,12.94
2019-02-21T12:56:50.105Z,12.35
2019-02-21T12:59:21.137Z,12.25
2019-02-21T13:01:52.221Z,12.22
2019-02-21T13:04:23.372Z,12.48
2019-02-21T13:06:54.390Z,12.72
2019-02-21T13:09:25.570Z,12.51
2019-02-21T13:11:56.730Z,12.88
2019-02-21T13:14:27.834Z,12.88
2019-02-21T13:16:58.824Z,12.50
2019-02-21T13:19:29.945Z,12.94
2019-02-21T13:22:01.067Z,12.66
2019-02-21T13:24:32.138Z,12.33
2019-02-21T13:27:03.282Z,12.74
2019-02-21T13:29:34.397Z,12.09
2019-02-21T13:32:05.488Z,12.52
2019-02-21T13:34:36.506Z,12.64
2019-02-21T13:37:07.539Z,12.46
2019-02-21T13:39:38.603Z,12.56
2019-02-21T13:42:09.745Z,12.60
2019-02-21T13:44:40.838Z,12.96
2019-02-21T13:47:12.091Z,12.93
2019-02-21T13:49:43.233Z,12.43
2019-02-21T13:52:14.240Z,12.18
2019-02-21T13:54:45.444Z,11.85
2019-02-21T13:57:16.551Z,11.89
2019-02-21T13:59:47.712Z,11.84
2019-02-21T14:02:18.848Z,12.15
2019-02-21T14:04:49.901Z,11.97
2019-02-21T14:07:21.067Z,11.83
2019-02-21T14:09:52.157Z,12.01
2019-02-21T14:12:26.275Z,12.09
2019-02-21T14:14:56.098Z,11.92
2019-02-21T14:17:28.604Z,12.23
2019-02-21T14:19:59.680Z,11.83
2019-02-21T14:22:30.796Z,11.90
2019-02-21T14:25:01.825Z,12.04
2019-02-21T14:27:32.948Z,12.00
2019-02-21T14:30:04.592Z,12.19
2019-02-21T14:32:35.744Z,12.34
2019-02-21T14:35:07.789Z,12.15
2019-02-21T14:37:38.860Z,12.23
2019-02-21T14:40:10.920Z,12.30
2019-02-21T14:42:42.081Z,12.31
2019-02-21T14:45:14.754Z,12.43
2019-02-21T14:47:45.961Z,13.66
2019-02-21T14:50:17.304Z,13.56
2019-02-21T15:08:45.638Z,18.15
2019-02-21T15:11:16.739Z,18.15
2019-02-21T15:13:47.887Z,16.68
2019-02-21T15:16:18.881Z,18.12
2019-02-21T15:18:49.904Z,14.79
2019-02-21T15:21:20.978Z,13.78
2019-02-21T15:23:52.208Z,13.17
2019-02-21T15:26:23.352Z,13.18
2019-02-21T15:28:54.367Z,12.98
2019-02-21T15:31:25.518Z,12.90
2019-02-21T15:33:56.745Z,12.44
2019-02-21T15:36:37.985Z,12.61
2019-02-21T15:39:00.552Z,12.45
2019-02-21T15:41:32.200Z,12.53
2019-02-21T15:44:03.404Z,12.39
2019-02-21T15:46:34.474Z,12.47
2019-02-21T15:49:05.582Z,12.40
2019-02-21T15:51:36.613Z,12.36
2019-02-21T15:54:07.933Z,12.39
2019-02-21T15:56:39.084Z,12.33
2019-02-21T15:59:10.213Z,12.18
2019-02-21T16:01:47.586Z,12.12
2019-02-21T16:04:14.091Z,12.10
2019-02-21T16:06:51.873Z,12.09
2019-02-21T16:09:19.076Z,12.05
2019-02-21T16:11:50.195Z,11.93
2019-02-21T16:14:21.284Z,11.97
2019-02-21T16:16:52.509Z,11.90
2019-02-21T16:19:23.676Z,11.83
2019-02-21T16:21:54.758Z,11.86
2019-02-21T16:24:25.765Z,11.76
2019-02-21T16:26:56.931Z,11.73
2019-02-21T16:29:28.913Z,11.76
2019-02-21T16:32:00.196Z,11.69
2019-02-21T16:34:33.052Z,11.66
2019-02-21T16:37:04.020Z,11.56
2019-02-21T16:39:35.046Z,11.55
2019-02-21T16:42:06.165Z,11.50
2019-02-21T16:44:37.337Z,11.47
2019-02-21T16:47:08.442Z,11.45
2019-02-21T16:49:39.513Z,11.46
2019-02-21T16:52:10.671Z,11.42
2019-02-21T16:54:41.689Z,11.39
2019-02-21T16:57:12.714Z,11.37
2019-02-21T16:59:44.871Z,11.38
2019-02-21T17:02:15.890Z,11.32
2019-02-21T17:04:47.123Z,11.36
2019-02-21T17:07:20.162Z,11.31
2019-02-21T17:09:51.077Z,11.29
2019-02-21T17:12:22.257Z,11.25
2019-02-21T17:14:53.415Z,11.27
2019-02-21T17:17:24.473Z,11.25
2019-02-21T17:19:56.735Z,11.20
2019-02-21T17:22:27.839Z,11.17
2019-02-21T17:24:58.953Z,11.14
2019-02-21T17:27:30.075Z,11.12
2019-02-21T17:30:01.128Z,11.10
2019-02-21T17:32:32.291Z,11.08
2019-02-21T17:35:03.477Z,11.05
2019-02-21T17:37:34.658Z,11.03
2019-02-21T17:40:07.107Z,11.01
2019-02-21T17:42:38.346Z,10.96
2019-02-21T17:45:11.251Z,10.95
2019-02-21T17:47:42.409Z,10.94
2019-02-21T17:50:14.903Z,10.92
2019-02-21T17:52:46.088Z,10.89
2019-02-21T17:55:17.573Z,10.88
2019-02-21T17:57:50.015Z,10.81
2019-02-21T18:00:27.059Z,10.78
2019-02-21T18:02:58.242Z,10.75
2019-02-21T18:05:29.450Z,10.70
2019-02-21T18:08:00.538Z,10.69
2019-02-21T18:10:31.653Z,10.68
2019-02-21T18:13:02.744Z,10.64
2019-02-21T18:15:34.003Z,10.59
2019-02-21T18:18:05.187Z,10.58
2019-02-21T18:20:36.399Z,10.55
2019-02-21T18:23:07.758Z,10.52
2019-02-21T18:25:42.067Z,10.46
2019-02-21T18:28:13.081Z,10.44
2019-02-21T18:30:44.314Z,10.41
2019-02-21T18:33:15.476Z,10.38
2019-02-21T18:35:46.748Z,10.30
2019-02-21T18:38:19.009Z,10.31
2019-02-21T18:40:50.054Z,10.25
2019-02-21T18:43:21.206Z,10.20
2019-02-21T18:45:52.394Z,10.17
2019-02-21T18:48:23.477Z,10.15
2019-02-21T18:50:54.581Z,10.13
2019-02-21T18:53:25.689Z,10.09
2019-02-21T18:55:57.747Z,10.07
2019-02-21T18:58:30.008Z,10.04
2019-02-21T19:01:01.106Z,10.04
2019-02-21T19:03:32.194Z,10.02
2019-02-21T19:06:03.456Z,9.98
2019-02-21T19:08:34.573Z,9.97
2019-02-21T19:11:05.868Z,9.90
2019-02-21T19:13:36.881Z,9.87
2019-02-21T19:16:08.143Z,9.81
2019-02-21T19:18:39.842Z,9.80
2019-02-21T19:21:11.004Z,9.78
2019-02-21T19:23:42.139Z,9.79
2019-02-21T19:26:13.547Z,9.73
2019-02-21T19:28:44.875Z,9.67
2019-02-21T19:31:18.660Z,9.69
2019-02-21T19:33:50.821Z,9.72
2019-02-21T19:36:22.090Z,9.63
2019-02-21T19:38:53.233Z,9.58
2019-02-21T19:41:25.441Z,9.58
2019-02-21T19:43:56.649Z,9.56
2019-02-21T19:46:27.820Z,9.60
2019-02-21T19:48:58.953Z,9.62
2019-02-21T19:51:30.103Z,9.60
2019-02-21T19:54:01.289Z,9.61
2019-02-21T19:56:32.444Z,9.61
2019-02-21T19:59:03.622Z,9.60
2019-02-21T20:01:34.697Z,9.62
2019-02-21T20:04:05.836Z,9.60
2019-02-21T20:06:37.008Z,9.61
2019-02-21T20:09:08.752Z,9.56
2019-02-21T20:11:40.816Z,9.55
2019-02-21T20:14:11.962Z,9.48
2019-02-21T20:16:43.061Z,9.50
2019-02-21T20:19:14.366Z,9.49
2019-02-21T20:21:45.543Z,9.48
2019-02-21T20:24:16.756Z,9.46
2019-02-21T20:26:47.940Z,9.45
2019-02-21T20:29:19.104Z,9.30
2019-02-21T20:31:50.247Z,9.30
2019-02-21T20:34:22.452Z,9.35
2019-02-21T20:36:54.150Z,9.38
2019-02-21T20:39:25.323Z,9.30
2019-02-21T20:41:56.507Z,9.35
2019-02-21T20:44:27.643Z,9.35
2019-02-21T20:46:58.748Z,9.35
2019-02-21T20:49:29.849Z,9.36
2019-02-21T20:52:02.150Z,9.25
2019-02-21T20:54:33.201Z,9.22
2019-02-21T20:57:04.550Z,9.19
2019-02-21T20:59:35.957Z,9.13
2019-02-21T21:02:07.162Z,9.06
2019-02-21T21:04:38.271Z,9.07
2019-02-21T21:07:12.256Z,9.11
2019-02-21T21:09:43.537Z,9.06
2019-02-21T21:12:14.889Z,9.10
2019-02-21T21:14:46.088Z,8.98
2019-02-21T21:17:17.183Z,8.84
2019-02-21T21:19:48.405Z,8.77
2019-02-21T21:22:19.592Z,8.66
2019-02-21T21:24:50.745Z,8.55
2019-02-21T21:27:21.821Z,8.50
2019-02-21T21:29:52.999Z,8.41
2019-02-21T21:32:24.028Z,8.43
2019-02-21T21:34:55.198Z,8.39
2019-02-21T21:37:26.432Z,8.28
2019-02-21T21:39:57.695Z,8.43
2019-02-21T21:42:28.847Z,8.43
2019-02-21T21:44:59.947Z,8.46
2019-02-21T21:47:31.197Z,8.44
2019-02-21T21:50:02.283Z,8.46
2019-02-21T21:52:34.569Z,8.44
2019-02-21T21:55:06.448Z,8.42
2019-02-21T21:57:37.526Z,8.50
2019-02-21T22:00:12.567Z,8.42
2019-02-21T22:02:45.268Z,8.43
2019-02-21T22:05:16.851Z,8.42
2019-02-21T22:07:49.382Z,8.42
2019-02-21T22:10:20.811Z,8.37
2019-02-21T22:12:51.889Z,8.39
2019-02-21T22:15:23.105Z,8.33
2019-02-21T22:17:54.190Z,8.30
2019-02-21T22:20:25.343Z,8.30
2019-02-21T22:22:56.423Z,8.25
2019-02-21T22:25:27.581Z,8.30
2019-02-21T22:28:00.206Z,8.28
2019-02-21T22:30:31.326Z,8.27
2019-02-21T22:33:02.437Z,8.34
2019-02-21T22:35:33.717Z,8.27
2019-02-21T22:38:05.026Z,8.23
2019-02-21T22:40:36.371Z,8.29
2019-02-21T22:43:07.463Z,8.24
2019-02-21T22:45:38.638Z,8.31
2019-02-21T22:48:09.806Z,8.36
2019-02-21T22:50:40.873Z,8.25
2019-02-21T22:53:11.950Z,8.24
2019-02-21T22:55:43.005Z,8.35
2019-02-21T22:58:14.155Z,8.34
2019-02-21T23:01:03.466Z,8.35
2019-02-21T23:03:50.688Z,8.42
2019-02-21T23:06:53.354Z,8.43
2019-02-21T23:09:27.838Z,8.86
2019-02-21T23:11:58.588Z,8.61
2019-02-21T23:14:29.929Z,8.80
2019-02-21T23:17:01.081Z,8.48
2019-02-21T23:19:36.020Z,8.39
2019-02-21T23:22:11.014Z,8.28
2019-02-21T23:24:42.298Z,8.32
2019-02-21T23:27:15.074Z,8.33
2019-02-21T23:29:46.219Z,8.30
2019-02-21T23:32:17.339Z,8.25
2019-02-21T23:34:48.374Z,8.24
2019-02-21T23:37:19.763Z,8.31
2019-02-21T23:39:51.998Z,8.29
2019-02-21T23:42:24.492Z,8.25
2019-02-21T23:44:55.633Z,8.26
2019-02-21T23:47:26.929Z,8.33
2019-02-21T23:49:58.129Z,8.33
2019-02-21T23:52:29.272Z,8.24
2019-02-21T23:55:00.354Z,8.30
2019-02-21T23:57:31.598Z,8.35
